createdAt,value
2023-11-12T00:02:00.556Z,67.22
2023-11-12T00:04:32.024Z,67.18
2023-11-12T00:07:01.994Z,68.53
2023-11-12T00:09:30.600Z,64.92
2023-11-12T00:11:59.020Z,62.34
2023-11-12T00:14:27.439Z,61.32
2023-11-12T00:16:59.080Z,60.31
2023-11-12T00:19:33.299Z,64.15
2023-11-12T00:22:03.208Z,63.13
2023-11-12T00:24:31.497Z,61.72
2023-11-12T00:26:59.831Z,61.15
2023-11-12T00:29:30.996Z,61.06
2023-11-12T00:32:06.218Z,60.37
2023-11-12T00:34:35.949Z,62.17
2023-11-12T00:37:08.856Z,67.24
2023-11-12T00:39:39.723Z,68.90
2023-11-12T00:42:09.225Z,71.58
2023-11-12T00:44:43.794Z,69.02
2023-11-12T00:47:12.094Z,67.70
2023-11-12T00:49:40.413Z,70.96
2023-11-12T00:52:10.134Z,69.47
2023-11-12T00:54:38.525Z,66.64
2023-11-12T00:57:07.519Z,67.75
2023-11-12T00:59:36.892Z,73.04
2023-11-12T01:02:05.739Z,71.94
2023-11-12T01:04:34.103Z,70.70
2023-11-12T01:07:02.420Z,70.88
2023-11-12T01:09:32.074Z,71.33
2023-11-12T01:12:03.105Z,72.60
2023-11-12T01:14:31.517Z,73.33
2023-11-12T01:17:06.597Z,66.88
2023-11-12T01:19:35.090Z,68.79
2023-11-12T01:22:04.662Z,69.37
2023-11-12T01:24:38.953Z,72.20
2023-11-12T01:27:07.310Z,70.62
2023-11-12T01:29:38.411Z,69.56
2023-11-12T01:32:07.978Z,68.98
2023-11-12T01:34:42.341Z,70.02
2023-11-12T01:37:19.622Z,71.07
2023-11-12T01:39:52.088Z,70.39
2023-11-12T01:42:20.455Z,69.70
2023-11-12T01:44:54.947Z,71.26
2023-11-12T01:47:23.640Z,72.24
2023-11-12T01:49:55.026Z,75.84
2023-11-12T01:52:24.721Z,70.77
2023-11-12T01:55:00.878Z,73.17
2023-11-12T01:57:29.719Z,70.35
2023-11-12T02:00:00.830Z,67.58
2023-11-12T02:02:36.293Z,69.21
2023-11-12T02:05:07.470Z,72.95
2023-11-12T02:07:43.322Z,73.53
2023-11-12T02:10:16.240Z,70.03
2023-11-12T02:12:48.972Z,68.87
2023-11-12T02:15:20.203Z,71.09
2023-11-12T02:17:49.012Z,70.61
2023-11-12T02:20:20.648Z,71.57
2023-11-12T02:22:49.311Z,71.26
2023-11-12T02:25:20.869Z,70.91
2023-11-12T02:27:49.562Z,71.60
2023-11-12T02:30:21.092Z,66.97
2023-11-12T02:33:08.138Z,64.10
2023-11-12T02:35:44.218Z,64.83
2023-11-12T02:38:12.956Z,62.17
2023-11-12T02:40:47.303Z,66.34
2023-11-12T02:43:16.177Z,69.12
2023-11-12T02:45:50.656Z,69.33
2023-11-12T02:48:19.289Z,73.62
2023-11-12T02:50:48.467Z,71.62
2023-11-12T02:53:19.833Z,72.07
2023-11-12T02:55:49.488Z,70.54
2023-11-12T02:58:20.744Z,68.93
2023-11-12T03:00:52.781Z,69.47
2023-11-12T03:03:21.411Z,68.26
2023-11-12T03:06:04.472Z,71.00
2023-11-12T03:08:38.673Z,70.20
2023-11-12T03:11:09.047Z,67.49
2023-11-12T03:13:40.292Z,65.44
2023-11-12T03:16:11.111Z,67.22
2023-11-12T03:18:50.150Z,67.13
2023-11-12T03:21:19.483Z,65.26
2023-11-12T03:23:57.475Z,68.81
2023-11-12T03:26:27.162Z,68.44
2023-11-12T03:28:55.455Z,68.66
2023-11-12T03:31:23.798Z,71.02
2023-11-12T03:33:54.623Z,71.30
2023-11-12T03:36:29.191Z,70.56
2023-11-12T03:39:00.247Z,71.91
2023-11-12T03:41:32.357Z,69.11
2023-11-12T03:44:09.716Z,69.76
2023-11-12T03:46:40.969Z,72.37
2023-11-12T03:49:09.318Z,74.05
2023-11-12T03:51:44.245Z,71.04
2023-11-12T03:54:13.590Z,69.55
2023-11-12T03:56:46.342Z,69.89
2023-11-12T03:59:14.679Z,70.10
2023-11-12T04:01:49.126Z,66.23
2023-11-12T04:04:17.576Z,67.97
2023-11-12T04:06:49.317Z,69.74
2023-11-12T04:09:17.661Z,66.42
2023-11-12T04:11:53.027Z,68.01
2023-11-12T04:14:21.594Z,65.19
2023-11-12T04:16:52.739Z,62.96
2023-11-12T04:19:21.059Z,65.40
2023-11-12T04:21:49.679Z,68.75
2023-11-12T04:24:21.058Z,72.78
2023-11-12T04:27:01.620Z,74.89
2023-11-12T04:29:32.964Z,72.75
2023-11-12T04:32:04.453Z,71.49
2023-11-12T04:34:39.087Z,70.58
2023-11-12T04:37:10.778Z,71.68
2023-11-12T04:39:39.101Z,68.72
2023-11-12T04:42:09.284Z,70.93
2023-11-12T04:44:40.359Z,70.26
2023-11-12T04:47:09.324Z,68.81
2023-11-12T04:49:39.261Z,64.74
2023-11-12T04:52:11.022Z,65.53
2023-11-12T04:54:39.339Z,65.67
2023-11-12T04:57:09.901Z,66.54
2023-11-12T04:59:42.116Z,65.99
2023-11-12T05:02:16.278Z,67.38
2023-11-12T05:04:58.056Z,69.57
2023-11-12T05:07:32.240Z,71.85
2023-11-12T05:10:00.510Z,70.97
2023-11-12T05:12:35.845Z,68.91
2023-11-12T05:15:07.587Z,69.42
2023-11-12T05:17:37.262Z,66.33
2023-11-12T05:20:10.271Z,65.48
2023-11-12T05:22:44.471Z,67.63
2023-11-12T05:25:21.967Z,67.82
2023-11-12T05:27:53.849Z,66.59
2023-11-12T05:30:25.343Z,64.52
2023-11-12T05:32:54.865Z,63.39
2023-11-12T05:35:23.866Z,67.43
2023-11-12T05:37:55.618Z,67.48
2023-11-12T05:40:24.068Z,64.99
2023-11-12T05:42:53.697Z,66.63
2023-11-12T05:45:22.032Z,64.53
2023-11-12T05:47:53.129Z,65.82
2023-11-12T05:50:21.475Z,65.19
2023-11-12T05:52:52.661Z,63.20
2023-11-12T05:55:25.941Z,62.89
2023-11-12T05:58:05.012Z,62.36
2023-11-12T06:00:33.732Z,63.61
2023-11-12T06:03:02.156Z,66.86
2023-11-12T06:05:33.400Z,66.17
2023-11-12T06:08:03.625Z,65.19
2023-11-12T06:10:38.620Z,67.15
2023-11-12T06:13:16.805Z,70.18
2023-11-12T06:15:48.459Z,71.86
2023-11-12T06:18:19.808Z,70.95
2023-11-12T06:20:52.326Z,70.04
2023-11-12T06:23:20.702Z,72.10
2023-11-12T06:25:49.036Z,74.10
2023-11-12T06:28:23.797Z,72.47
2023-11-12T06:30:58.786Z,68.37
2023-11-12T06:33:33.215Z,68.37
2023-11-12T06:36:05.924Z,68.38
2023-11-12T06:38:34.207Z,68.88
2023-11-12T06:41:02.493Z,72.21
2023-11-12T06:43:41.212Z,69.42
2023-11-12T06:46:09.733Z,71.90
2023-11-12T06:48:38.048Z,67.21
2023-11-12T06:51:09.555Z,63.87
2023-11-12T06:53:37.876Z,66.02
2023-11-12T06:56:11.665Z,72.40
2023-11-12T06:58:42.537Z,71.49
2023-11-12T07:01:21.725Z,69.74
2023-11-12T07:03:52.591Z,65.50
2023-11-12T07:06:21.001Z,64.44
2023-11-12T07:08:52.096Z,63.85
2023-11-12T07:11:20.482Z,63.89
2023-11-12T07:13:50.138Z,62.48
2023-11-12T07:16:19.295Z,63.90
2023-11-12T07:19:09.045Z,64.15
2023-11-12T07:21:37.847Z,63.43
2023-11-12T07:24:07.633Z,63.92
2023-11-12T07:26:38.918Z,62.47
2023-11-12T07:29:11.421Z,62.38
2023-11-12T07:31:39.734Z,61.06
2023-11-12T07:34:08.637Z,62.36
2023-11-12T07:36:38.547Z,62.13
2023-11-12T07:39:09.651Z,63.72
2023-11-12T07:41:42.720Z,65.12
2023-11-12T07:44:16.630Z,64.66
2023-11-12T07:46:54.876Z,67.32
2023-11-12T07:49:26.078Z,65.48
2023-11-12T07:51:57.472Z,66.85
2023-11-12T07:54:27.406Z,66.38
2023-11-12T07:57:05.174Z,68.44
2023-11-12T07:59:35.211Z,67.74
2023-11-12T08:02:06.088Z,69.65
2023-11-12T08:04:34.492Z,72.25
2023-11-12T08:07:10.938Z,69.53
2023-11-12T08:09:45.542Z,70.71
2023-11-12T08:12:17.455Z,69.93
2023-11-12T08:14:52.747Z,68.40
2023-11-12T08:17:21.039Z,70.19
2023-11-12T08:19:55.497Z,68.21
2023-11-12T08:22:23.812Z,71.97
2023-11-12T08:24:55.073Z,73.12
2023-11-12T08:27:26.494Z,68.88
2023-11-12T08:30:22.280Z,70.04
2023-11-12T08:32:54.009Z,68.43
2023-11-12T08:35:22.576Z,67.67
2023-11-12T08:37:56.263Z,69.29
2023-11-12T08:40:25.600Z,67.97
2023-11-12T08:43:03.126Z,71.79
2023-11-12T08:45:35.062Z,70.87
2023-11-12T08:48:06.768Z,70.13
2023-11-12T08:50:38.133Z,70.95
2023-11-12T08:53:06.418Z,71.69
2023-11-12T08:55:34.710Z,70.26
2023-11-12T08:58:05.278Z,70.57
2023-11-12T09:00:36.075Z,70.05
2023-11-12T09:03:17.398Z,71.08
2023-11-12T09:05:48.811Z,68.94
2023-11-12T09:08:21.539Z,71.38
2023-11-12T09:11:05.549Z,70.12
2023-11-12T09:13:36.625Z,69.14
2023-11-12T09:16:08.265Z,67.23
2023-11-12T09:18:39.803Z,68.35
2023-11-12T09:21:08.487Z,69.02
2023-11-12T09:23:40.416Z,68.48
2023-11-12T09:26:21.395Z,67.55
2023-11-12T09:28:49.779Z,65.32
2023-11-12T09:31:20.450Z,62.34
2023-11-12T09:33:51.630Z,62.27
2023-11-12T09:36:21.259Z,60.48
2023-11-12T09:38:52.595Z,60.49
2023-11-12T09:41:24.512Z,62.17
2023-11-12T09:43:54.452Z,60.46
2023-11-12T09:46:25.386Z,60.86
2023-11-12T09:49:09.865Z,59.84
2023-11-12T09:51:41.764Z,59.81
2023-11-12T09:54:11.678Z,61.21
2023-11-12T09:56:39.968Z,60.68
2023-11-12T09:59:11.366Z,60.52
2023-11-12T10:01:41.121Z,60.97
2023-11-12T10:04:17.084Z,60.79
2023-11-12T10:06:47.924Z,62.10
2023-11-12T10:09:16.858Z,60.61
2023-11-12T10:11:48.091Z,59.79
2023-11-12T10:14:24.849Z,58.97
2023-11-12T10:17:11.754Z,61.47
2023-11-12T10:19:58.005Z,62.35
2023-11-12T10:22:44.222Z,63.66
2023-11-12T10:25:12.621Z,62.72
2023-11-12T10:27:54.168Z,62.68
2023-11-12T10:30:26.036Z,63.48
2023-11-12T10:33:21.033Z,62.88
2023-11-12T10:35:49.746Z,62.38
2023-11-12T10:38:19.571Z,62.36
2023-11-12T10:41:03.653Z,61.79
2023-11-12T10:43:37.334Z,62.72
2023-11-12T10:46:08.474Z,61.98
2023-11-12T10:48:48.757Z,62.12
2023-11-12T10:51:17.981Z,63.92
2023-11-12T10:53:49.826Z,64.65
2023-11-12T10:56:22.874Z,64.60
2023-11-12T10:58:55.222Z,63.95
2023-11-12T11:01:25.224Z,64.82
2023-11-12T11:03:57.752Z,63.23
2023-11-12T11:06:30.548Z,62.22
2023-11-12T11:09:06.364Z,64.16
2023-11-12T11:11:45.026Z,61.58
2023-11-12T11:14:23.133Z,61.95
2023-11-12T11:16:54.324Z,63.22
2023-11-12T11:19:54.994Z,63.79
2023-11-12T11:22:25.830Z,63.99
2023-11-12T11:25:01.181Z,62.29
2023-11-12T11:27:32.758Z,61.25
2023-11-12T11:30:13.528Z,60.89
2023-11-12T11:33:06.206Z,63.99
2023-11-12T11:35:40.153Z,61.46
2023-11-12T11:38:14.916Z,61.06
2023-11-12T11:41:00.538Z,61.39
2023-11-12T11:43:33.151Z,62.33
2023-11-12T11:46:25.544Z,62.00
2023-11-12T11:49:19.691Z,61.07
2023-11-12T11:51:50.415Z,63.27
2023-11-12T11:54:26.605Z,60.73
2023-11-12T11:56:58.730Z,61.10
2023-11-12T11:59:27.486Z,60.58
2023-11-12T12:02:03.673Z,62.15
2023-11-12T12:04:35.295Z,62.36
2023-11-12T12:07:22.348Z,61.81
2023-11-12T12:10:00.165Z,61.80
2023-11-12T12:12:38.639Z,63.11
2023-11-12T12:15:09.713Z,63.93
2023-11-12T12:17:41.163Z,61.11
2023-11-12T12:20:11.373Z,63.85
2023-11-12T12:22:42.513Z,62.41
2023-11-12T12:25:15.118Z,63.49
2023-11-12T12:27:54.509Z,61.77
2023-11-12T12:30:23.095Z,62.85
2023-11-12T12:32:52.426Z,61.93
2023-11-12T12:35:24.058Z,62.90
2023-11-12T12:38:08.469Z,62.55
2023-11-12T12:40:49.671Z,64.02
2023-11-12T12:43:18.374Z,63.62
2023-11-12T12:46:06.295Z,64.76
2023-11-12T12:48:36.091Z,63.63
2023-11-12T12:51:18.099Z,62.87
2023-11-12T12:53:52.931Z,62.50
2023-11-12T12:56:22.820Z,61.00
2023-11-12T12:58:57.514Z,62.95
2023-11-12T13:01:25.990Z,61.78
2023-11-12T13:03:57.489Z,64.54
2023-11-12T13:06:27.350Z,62.55
2023-11-12T13:08:58.414Z,64.96
2023-11-12T13:11:28.424Z,62.22
2023-11-12T13:14:02.791Z,63.54
2023-11-12T13:16:37.216Z,62.41
2023-11-12T13:19:06.279Z,62.59
2023-11-12T13:21:47.784Z,63.28
2023-11-12T13:24:30.134Z,63.08
2023-11-12T13:27:04.444Z,63.62
2023-11-12T13:29:39.641Z,64.16
2023-11-12T13:32:08.819Z,65.33
2023-11-12T13:34:47.056Z,64.74
2023-11-12T13:37:16.823Z,63.04
2023-11-12T13:39:54.326Z,64.52
2023-11-12T13:42:22.701Z,63.81
2023-11-12T13:44:54.956Z,64.30
2023-11-12T13:47:23.958Z,64.34
2023-11-12T13:49:55.753Z,62.84
2023-11-12T13:52:24.221Z,62.43
2023-11-12T13:55:01.447Z,64.68
2023-11-12T13:57:29.978Z,64.17
2023-11-12T13:59:58.779Z,66.15
2023-11-12T14:02:33.024Z,65.17
2023-11-12T14:05:07.216Z,63.94
2023-11-12T14:07:35.518Z,63.71
2023-11-12T14:10:11.322Z,66.43
2023-11-12T14:12:40.277Z,66.18
2023-11-12T14:15:19.021Z,63.80
2023-11-12T14:17:47.893Z,61.95
2023-11-12T14:20:23.549Z,60.57
2023-11-12T14:22:56.346Z,63.09
2023-11-12T14:25:26.855Z,62.50
2023-11-12T14:27:56.029Z,63.51
2023-11-12T14:30:24.928Z,64.38
2023-11-12T14:33:07.321Z,62.41
2023-11-12T14:35:41.629Z,62.51
2023-11-12T14:38:20.285Z,64.11
2023-11-12T14:40:55.033Z,64.96
2023-11-12T14:43:23.329Z,65.27
2023-11-12T14:45:51.849Z,64.32
2023-11-12T14:48:29.838Z,64.38
2023-11-12T14:51:01.561Z,63.73
2023-11-12T14:53:32.985Z,62.94
2023-11-12T14:56:04.401Z,63.22
2023-11-12T14:58:38.733Z,63.33
2023-11-12T15:01:13.918Z,63.92
2023-11-12T15:03:45.333Z,62.59
2023-11-12T15:06:13.714Z,64.10
2023-11-12T15:08:42.103Z,62.00
2023-11-12T15:11:18.263Z,61.25
2023-11-12T15:14:00.986Z,61.17
2023-11-12T15:16:43.042Z,62.44
2023-11-12T15:19:14.435Z,61.15
2023-11-12T15:21:51.642Z,61.49
2023-11-12T15:24:28.006Z,61.85
2023-11-12T15:26:58.423Z,61.31
2023-11-12T15:29:32.731Z,62.96
2023-11-12T15:32:09.275Z,62.42
2023-11-12T15:34:38.655Z,61.50
2023-11-12T15:37:13.119Z,62.66
2023-11-12T15:39:48.454Z,62.09
2023-11-12T15:42:18.427Z,61.45
2023-11-12T15:44:49.865Z,60.98
2023-11-12T15:47:20.808Z,60.85
2023-11-12T15:50:02.845Z,60.51
2023-11-12T15:52:31.185Z,60.57
2023-11-12T15:55:00.532Z,60.65
2023-11-12T15:57:37.860Z,60.68
2023-11-12T16:00:09.309Z,60.44
2023-11-12T16:02:39.344Z,60.38
2023-11-12T16:05:09.202Z,60.52
2023-11-12T16:07:51.621Z,60.55
2023-11-12T16:10:20.453Z,60.55
2023-11-12T16:12:53.214Z,60.63
2023-11-12T16:15:21.728Z,60.50
2023-11-12T16:17:56.062Z,60.50
2023-11-12T16:20:33.995Z,60.23
2023-11-12T16:23:07.592Z,60.33
2023-11-12T16:25:35.859Z,60.28
2023-11-12T16:28:20.815Z,60.11
2023-11-12T16:30:52.198Z,60.26
2023-11-12T16:33:20.949Z,60.45
2023-11-12T16:35:49.248Z,60.12
2023-11-12T16:38:23.659Z,60.19
2023-11-12T16:40:51.945Z,60.35
2023-11-12T16:43:21.707Z,60.18
2023-11-12T16:45:53.138Z,60.45
2023-11-12T16:48:25.930Z,60.47
2023-11-12T16:51:00.444Z,60.60
2023-11-12T16:53:38.061Z,60.57
2023-11-12T16:56:07.464Z,60.55
2023-11-12T16:58:37.409Z,60.47
2023-11-12T17:01:06.216Z,60.22
2023-11-12T17:03:37.503Z,59.94
2023-11-12T17:06:09.216Z,60.27
2023-11-12T17:08:37.604Z,60.23
2023-11-12T17:11:06.846Z,60.33
2023-11-12T17:13:38.700Z,60.05
2023-11-12T17:16:08.176Z,60.21
2023-11-12T17:18:36.800Z,60.03
2023-11-12T17:21:06.843Z,60.03
2023-11-12T17:23:53.529Z,60.16
2023-11-12T17:26:22.946Z,59.93
2023-11-12T17:28:52.607Z,60.09
2023-11-12T17:31:20.877Z,59.88
2023-11-12T17:33:52.225Z,62.42
2023-11-12T17:36:21.013Z,62.53
2023-11-12T17:38:50.398Z,62.69
2023-11-12T17:41:18.825Z,62.62
2023-11-12T17:43:50.122Z,61.64
2023-11-12T17:46:20.179Z,63.82
2023-11-12T17:48:57.527Z,63.04
2023-11-12T17:51:26.572Z,62.92
2023-11-12T17:53:57.669Z,62.29
2023-11-12T17:56:25.931Z,61.31
2023-11-12T17:58:57.050Z,64.90
2023-11-12T18:01:26.775Z,62.72
2023-11-12T18:04:00.117Z,65.67
2023-11-12T18:06:29.711Z,64.37
2023-11-12T18:09:00.836Z,65.49
2023-11-12T18:11:35.420Z,64.29
2023-11-12T18:14:10.043Z,62.96
2023-11-12T18:16:39.782Z,62.02
2023-11-12T18:19:13.513Z,62.39
2023-11-12T18:21:44.680Z,62.18
2023-11-12T18:24:18.637Z,66.32
2023-11-12T18:26:51.426Z,65.07
2023-11-12T18:29:19.811Z,63.49
2023-11-12T18:31:57.334Z,63.59
2023-11-12T18:34:27.026Z,65.07
2023-11-12T18:36:58.570Z,64.60
2023-11-12T18:39:27.483Z,62.69
2023-11-12T18:42:05.521Z,61.70
2023-11-12T18:44:33.810Z,61.10
2023-11-12T18:47:04.557Z,63.93
2023-11-12T18:49:37.154Z,63.82
2023-11-12T18:52:15.392Z,62.04
2023-11-12T18:54:46.706Z,61.37
2023-11-12T18:57:15.003Z,65.34
2023-11-12T18:59:46.336Z,63.32
2023-11-12T19:02:15.985Z,62.10
2023-11-12T19:07:27.889Z,61.34
2023-11-12T19:10:11.108Z,65.18
2023-11-12T19:12:40.900Z,65.30
2023-11-12T19:15:10.497Z,64.75
2023-11-12T19:17:44.251Z,63.19
2023-11-12T19:20:19.253Z,62.07
2023-11-12T19:22:48.013Z,61.61
2023-11-12T19:25:16.850Z,61.67
2023-11-12T19:27:46.045Z,61.11
2023-11-12T19:30:20.563Z,62.50
2023-11-12T19:33:08.324Z,61.36
2023-11-12T19:35:39.878Z,63.71
2023-11-12T19:38:09.959Z,64.48
2023-11-12T19:40:40.654Z,65.27
2023-11-12T19:43:09.754Z,64.42
2023-11-12T19:45:41.588Z,63.62
2023-11-12T19:48:11.406Z,64.27
2023-11-12T19:50:40.530Z,66.39
2023-11-12T19:53:08.826Z,67.31
2023-11-12T19:55:45.900Z,63.78
2023-11-12T19:58:16.411Z,64.20
2023-11-12T20:00:44.752Z,63.12
2023-11-12T20:03:14.652Z,63.00
2023-11-12T20:05:43.755Z,64.32
2023-11-12T20:08:12.760Z,65.42
2023-11-12T20:10:42.541Z,67.20
2023-11-12T20:13:15.107Z,64.86
2023-11-12T20:15:47.988Z,63.43
2023-11-12T20:18:20.566Z,62.26
2023-11-12T20:21:10.620Z,62.00
2023-11-12T20:23:39.223Z,62.76
2023-11-12T20:26:08.571Z,62.89
2023-11-12T20:28:40.118Z,62.69
2023-11-12T20:31:08.493Z,62.55
2023-11-12T20:33:38.702Z,64.28
2023-11-12T20:36:13.568Z,63.50
2023-11-12T20:38:46.290Z,62.00
2023-11-12T20:41:14.652Z,63.79
2023-11-12T20:43:43.759Z,64.60
2023-11-12T20:46:19.851Z,66.82
2023-11-12T20:49:05.100Z,67.12
2023-11-12T20:51:36.317Z,65.29
2023-11-12T20:54:04.735Z,62.31
2023-11-12T20:56:37.821Z,65.30
2023-11-12T20:59:10.524Z,64.10
2023-11-12T21:01:39.774Z,61.68
2023-11-12T21:04:12.912Z,63.12
2023-11-12T21:06:49.603Z,61.75
2023-11-12T21:09:18.266Z,63.72
2023-11-12T21:11:54.398Z,62.96
2023-11-12T21:14:22.698Z,63.15
2023-11-12T21:16:51.215Z,62.97
2023-11-12T21:19:22.977Z,61.49
2023-11-12T21:21:51.805Z,60.93
2023-11-12T21:24:27.104Z,61.02
2023-11-12T21:26:55.442Z,62.93
2023-11-12T21:29:24.857Z,62.08
2023-11-12T21:31:56.005Z,62.92
2023-11-12T21:34:27.222Z,64.25
2023-11-12T21:37:01.345Z,62.91
2023-11-12T21:39:43.141Z,62.64
2023-11-12T21:42:11.595Z,64.19
2023-11-12T21:44:49.622Z,63.25
2023-11-12T21:47:19.807Z,61.96
2023-11-12T21:49:57.826Z,66.63
2023-11-12T21:52:26.983Z,68.82
2023-11-12T21:55:09.704Z,66.54
2023-11-12T21:57:38.240Z,64.92
2023-11-12T22:00:12.985Z,66.73
2023-11-12T22:02:44.665Z,64.05
2023-11-12T22:05:20.056Z,64.33
2023-11-12T22:07:48.537Z,65.53
2023-11-12T22:10:19.213Z,67.53
2023-11-12T22:12:52.150Z,65.79
2023-11-12T22:15:20.819Z,64.15
2023-11-12T22:17:55.075Z,62.47
2023-11-12T22:20:38.989Z,63.31
2023-11-12T22:23:11.997Z,64.03
2023-11-12T22:25:41.789Z,63.40
2023-11-12T22:28:10.194Z,61.80
2023-11-12T22:30:40.532Z,61.08
2023-11-12T22:33:21.183Z,62.05
2023-11-12T22:35:50.842Z,61.12
2023-11-12T22:38:19.141Z,60.63
2023-11-12T22:40:47.413Z,61.07
2023-11-12T22:43:15.745Z,60.90
2023-11-12T22:45:44.234Z,60.56
2023-11-12T22:48:24.444Z,60.15
2023-11-12T22:50:57.885Z,59.98
2023-11-12T22:53:26.840Z,60.03
2023-11-12T22:56:07.985Z,59.97
2023-11-12T22:58:36.435Z,60.14
2023-11-12T23:01:16.905Z,59.97
2023-11-12T23:03:51.123Z,59.63
2023-11-12T23:06:21.942Z,59.79
2023-11-12T23:08:54.771Z,59.62
2023-11-12T23:11:29.923Z,59.58
2023-11-12T23:14:01.607Z,59.48
2023-11-12T23:16:35.754Z,59.60
2023-11-12T23:19:07.192Z,59.73
2023-11-12T23:21:37.149Z,59.67
2023-11-12T23:24:06.387Z,59.46
2023-11-12T23:26:35.068Z,59.58
2023-11-12T23:29:19.125Z,59.64
2023-11-12T23:31:54.947Z,59.49
2023-11-12T23:34:44.050Z,59.48
2023-11-12T23:37:17.185Z,60.60
2023-11-12T23:39:45.538Z,60.30
2023-11-12T23:42:14.433Z,60.29
2023-11-12T23:44:49.030Z,59.98
2023-11-12T23:47:21.296Z,59.76
2023-11-12T23:49:50.508Z,60.25
2023-11-12T23:52:20.259Z,60.91
2023-11-12T23:54:51.716Z,60.29
2023-11-12T23:57:20.210Z,61.79
2023-11-12T23:59:48.925Z,61.59
